createdAt,value
2022-07-27T00:01:19.338Z,0.00
2022-07-27T00:03:47.255Z,0.00
2022-07-27T00:06:15.029Z,0.00
2022-07-27T00:08:43.048Z,0.40
2022-07-27T00:11:11.769Z,0.00
2022-07-27T00:13:39.460Z,0.00
2022-07-27T00:16:07.143Z,0.00
2022-07-27T00:18:35.393Z,1.00
2022-07-27T00:21:03.018Z,0.00
2022-07-27T00:23:30.825Z,0.00
2022-07-27T00:25:58.456Z,0.20
2022-07-27T00:28:26.585Z,0.20
2022-07-27T00:30:54.328Z,0.00
2022-07-27T00:33:21.957Z,0.00
2022-07-27T00:35:49.657Z,0.00
2022-07-27T00:38:17.881Z,0.00
2022-07-27T00:40:45.692Z,0.00
2022-07-27T00:43:13.374Z,0.00
2022-07-27T00:45:41.073Z,0.00
2022-07-27T00:48:09.234Z,0.00
2022-07-27T00:50:36.912Z,0.00
2022-07-27T00:53:06.148Z,0.00
2022-07-27T00:55:33.801Z,0.00
2022-07-27T00:58:03.868Z,0.00
2022-07-27T01:00:31.492Z,0.00
2022-07-27T01:02:59.209Z,0.20
2022-07-27T01:05:36.426Z,0.20
2022-07-27T01:08:07.930Z,0.00
2022-07-27T01:10:35.621Z,0.00
2022-07-27T01:13:03.279Z,0.00
2022-07-27T01:15:31.412Z,0.00
2022-07-27T01:18:04.652Z,0.00
2022-07-27T01:20:33.901Z,0.00
2022-07-27T01:23:01.639Z,0.60
2022-07-27T01:25:29.770Z,1.00
2022-07-27T01:27:57.462Z,0.00
2022-07-27T01:30:29.743Z,0.20
2022-07-27T01:32:57.465Z,0.00
2022-07-27T01:35:25.143Z,0.00
2022-07-27T01:37:53.247Z,0.00
2022-07-27T01:40:20.981Z,0.00
2022-07-27T01:42:48.595Z,0.00
2022-07-27T01:45:16.321Z,0.40
2022-07-27T01:47:44.871Z,0.00
2022-07-27T01:50:12.592Z,0.40
2022-07-27T01:52:40.301Z,0.20
2022-07-27T01:55:07.999Z,0.00
2022-07-27T01:57:35.679Z,0.00
2022-07-27T02:00:03.534Z,0.50
2022-07-27T02:02:31.208Z,0.00
2022-07-27T02:04:58.963Z,0.00
2022-07-27T02:07:26.672Z,0.00
2022-07-27T02:09:54.334Z,0.40
2022-07-27T02:12:36.353Z,1.00
2022-07-27T02:15:06.003Z,0.00
2022-07-27T02:17:33.953Z,0.40
2022-07-27T02:20:02.882Z,0.00
2022-07-27T02:22:30.524Z,0.00
2022-07-27T02:24:59.629Z,1.00
2022-07-27T02:27:27.327Z,0.00
2022-07-27T02:29:54.962Z,0.00
2022-07-27T02:32:22.661Z,0.40
2022-07-27T02:34:50.358Z,0.00
2022-07-27T02:37:18.473Z,0.40
2022-07-27T02:39:46.114Z,1.00
2022-07-27T02:42:13.779Z,1.00
2022-07-27T02:44:41.675Z,0.00
2022-07-27T02:47:09.889Z,0.00
2022-07-27T02:49:37.586Z,1.00
2022-07-27T02:52:05.244Z,0.00
2022-07-27T02:54:32.933Z,0.00
2022-07-27T02:57:00.975Z,0.00
2022-07-27T02:59:28.638Z,0.00
2022-07-27T03:01:56.320Z,0.00
2022-07-27T03:04:24.470Z,0.00
2022-07-27T03:06:52.579Z,0.00
2022-07-27T03:09:20.615Z,0.00
2022-07-27T03:12:01.208Z,0.00
2022-07-27T03:14:29.418Z,0.00
2022-07-27T03:16:57.040Z,1.00
2022-07-27T03:19:29.769Z,0.00
2022-07-27T03:21:57.937Z,0.25
2022-07-27T03:24:25.633Z,0.00
2022-07-27T03:26:53.298Z,0.00
2022-07-27T03:29:21.052Z,0.00
2022-07-27T03:31:48.654Z,0.50
2022-07-27T03:34:16.315Z,0.00
2022-07-27T03:36:44.664Z,0.00
2022-07-27T03:39:13.656Z,0.00
2022-07-27T03:41:41.757Z,0.00
2022-07-27T03:44:09.392Z,0.00
2022-07-27T03:46:37.505Z,0.00
2022-07-27T03:49:14.894Z,0.00
2022-07-27T03:51:42.989Z,0.00
2022-07-27T03:54:11.214Z,0.00
2022-07-27T03:56:38.829Z,0.50
2022-07-27T03:59:06.894Z,0.00
2022-07-27T04:01:34.564Z,1.00
2022-07-27T04:04:02.272Z,0.00
2022-07-27T04:06:29.923Z,0.00
2022-07-27T04:09:08.150Z,0.00
2022-07-27T04:11:37.774Z,0.00
2022-07-27T04:14:12.795Z,0.00
2022-07-27T04:16:41.578Z,0.00
2022-07-27T04:19:09.475Z,1.00
2022-07-27T04:21:38.083Z,0.00
2022-07-27T04:24:05.725Z,1.00
2022-07-27T04:26:33.684Z,1.00
2022-07-27T04:29:01.261Z,0.00
2022-07-27T04:31:28.952Z,0.00
2022-07-27T04:33:56.619Z,0.00
2022-07-27T04:36:24.280Z,1.00
2022-07-27T04:38:52.369Z,3.00
2022-07-27T04:41:19.976Z,0.50
2022-07-27T04:43:47.634Z,0.75
2022-07-27T04:46:15.832Z,0.50
2022-07-27T04:48:49.531Z,1.00
2022-07-27T04:51:17.435Z,1.00
2022-07-27T04:53:53.951Z,1.50
2022-07-27T04:56:26.452Z,0.00
2022-07-27T04:58:54.110Z,1.00
2022-07-27T05:01:23.099Z,0.75
2022-07-27T05:03:50.982Z,1.00
2022-07-27T05:06:18.759Z,0.50
2022-07-27T05:08:46.865Z,1.00
2022-07-27T05:11:14.521Z,1.25
2022-07-27T05:13:42.225Z,1.00
2022-07-27T05:16:10.857Z,1.00
2022-07-27T05:18:38.977Z,1.00
2022-07-27T05:21:06.688Z,1.00
2022-07-27T05:23:34.461Z,2.00
2022-07-27T05:26:02.129Z,3.00
2022-07-27T05:28:30.232Z,3.00
2022-07-27T05:30:57.970Z,3.50
2022-07-27T05:33:25.663Z,2.50
2022-07-27T05:35:53.340Z,6.00
2022-07-27T05:38:21.500Z,3.50
2022-07-27T05:40:49.175Z,3.00
2022-07-27T05:43:16.885Z,4.00
2022-07-27T05:45:44.887Z,3.80
2022-07-27T05:48:13.034Z,1.80
2022-07-27T05:50:40.690Z,1.80
2022-07-27T05:53:08.987Z,3.00
2022-07-27T05:55:36.652Z,3.00
2022-07-27T05:58:05.145Z,1.80
2022-07-27T06:00:33.103Z,1.40
2022-07-27T06:03:01.013Z,1.00
2022-07-27T06:05:28.791Z,1.00
2022-07-27T06:08:06.686Z,0.00
2022-07-27T06:10:34.316Z,0.80
2022-07-27T06:13:01.976Z,0.00
2022-07-27T06:15:29.912Z,0.00
2022-07-27T06:17:57.604Z,1.00
2022-07-27T06:20:25.282Z,2.60
2022-07-27T06:22:52.913Z,0.00
2022-07-27T06:25:20.673Z,0.00
2022-07-27T06:27:48.344Z,0.40
2022-07-27T06:30:16.143Z,0.00
2022-07-27T06:32:43.889Z,0.00
2022-07-27T06:35:12.538Z,0.00
2022-07-27T06:37:44.363Z,0.00
2022-07-27T06:40:12.564Z,0.00
2022-07-27T06:42:40.185Z,1.00
2022-07-27T06:45:07.903Z,0.00
2022-07-27T06:47:35.529Z,0.00
2022-07-27T06:50:17.275Z,0.00
2022-07-27T06:52:45.353Z,1.00
2022-07-27T06:55:12.979Z,0.00
2022-07-27T06:57:40.656Z,0.00
2022-07-27T07:00:08.345Z,0.20
2022-07-27T07:02:36.073Z,0.60
2022-07-27T07:05:04.319Z,0.20
2022-07-27T07:07:32.975Z,0.00
2022-07-27T07:10:00.668Z,0.00
2022-07-27T07:12:28.880Z,0.40
2022-07-27T07:14:56.534Z,0.00
2022-07-27T07:17:25.133Z,0.40
2022-07-27T07:19:52.808Z,0.00
2022-07-27T07:22:20.525Z,0.00
2022-07-27T07:24:48.621Z,0.00
2022-07-27T07:27:16.360Z,0.00
2022-07-27T07:29:44.074Z,0.00
2022-07-27T07:32:11.726Z,0.00
2022-07-27T07:34:42.058Z,0.00
2022-07-27T07:37:10.608Z,0.00
2022-07-27T07:39:38.272Z,0.40
2022-07-27T07:42:06.005Z,0.00
2022-07-27T07:44:38.762Z,0.00
2022-07-27T07:47:06.904Z,0.00
2022-07-27T07:49:39.808Z,0.00
2022-07-27T07:52:08.126Z,0.00
2022-07-27T07:54:36.052Z,0.00
2022-07-27T07:57:03.927Z,0.00
2022-07-27T07:59:31.689Z,0.00
2022-07-27T08:01:59.602Z,0.00
2022-07-27T08:04:27.336Z,0.00
2022-07-27T08:06:56.260Z,0.00
2022-07-27T08:09:26.975Z,0.00
2022-07-27T08:11:54.735Z,0.00
2022-07-27T08:14:23.476Z,0.00
2022-07-27T08:16:51.155Z,0.20
2022-07-27T08:19:18.963Z,0.00
2022-07-27T08:21:46.967Z,0.00
2022-07-27T08:24:14.686Z,0.00
2022-07-27T08:26:42.410Z,0.00
2022-07-27T08:29:13.746Z,0.00
2022-07-27T08:31:51.307Z,0.00
2022-07-27T08:34:20.397Z,0.00
2022-07-27T08:36:48.151Z,0.00
2022-07-27T08:39:52.663Z,0.00
2022-07-27T08:42:04.404Z,0.00
2022-07-27T08:44:32.607Z,0.00
2022-07-27T08:47:00.387Z,0.00
2022-07-27T08:49:42.007Z,0.00
2022-07-27T08:52:10.619Z,1.00
2022-07-27T08:54:38.579Z,0.00
2022-07-27T08:57:06.334Z,0.00
2022-07-27T08:59:34.052Z,0.00
2022-07-27T09:02:03.522Z,0.00
2022-07-27T09:04:31.557Z,0.00
2022-07-27T09:06:59.755Z,0.00
2022-07-27T09:09:27.442Z,0.00
2022-07-27T09:11:55.092Z,0.00
2022-07-27T09:14:23.166Z,0.00
2022-07-27T09:17:45.867Z,0.00
2022-07-27T09:19:38.563Z,0.00
2022-07-27T09:22:06.655Z,0.00
2022-07-27T09:24:47.096Z,0.00
2022-07-27T09:27:15.508Z,0.00
2022-07-27T09:29:43.141Z,0.00
2022-07-27T09:32:10.835Z,0.00
2022-07-27T09:34:38.779Z,0.00
2022-07-27T09:37:08.260Z,0.00
2022-07-27T09:39:36.297Z,0.00
2022-07-27T09:42:03.995Z,0.00
2022-07-27T09:44:32.745Z,1.00
2022-07-27T09:47:02.521Z,1.80
2022-07-27T09:49:30.298Z,0.00
2022-07-27T09:52:00.948Z,0.00
2022-07-27T09:54:31.885Z,0.00
2022-07-27T09:56:59.529Z,0.40
2022-07-27T09:59:28.130Z,1.00
2022-07-27T10:01:55.962Z,1.00
2022-07-27T10:04:23.723Z,0.00
2022-07-27T10:07:02.846Z,0.20
2022-07-27T10:09:31.470Z,0.00
2022-07-27T10:11:59.189Z,0.00
2022-07-27T10:14:27.208Z,0.20
2022-07-27T10:16:54.934Z,1.00
2022-07-27T10:19:22.643Z,0.00
2022-07-27T10:21:50.569Z,0.60
2022-07-27T10:24:18.187Z,0.00
2022-07-27T10:26:46.106Z,0.80
2022-07-27T10:29:15.598Z,0.00
2022-07-27T10:31:43.278Z,0.00
2022-07-27T10:34:11.308Z,0.00
2022-07-27T10:36:40.501Z,0.00
2022-07-27T10:39:08.259Z,0.00
2022-07-27T10:41:36.201Z,0.00
2022-07-27T10:44:04.424Z,0.20
2022-07-27T10:46:32.165Z,0.00
2022-07-27T10:49:00.143Z,0.00
2022-07-27T10:51:28.305Z,0.00
2022-07-27T10:54:11.936Z,1.00
2022-07-27T10:56:40.698Z,0.00
2022-07-27T10:59:08.402Z,0.40
2022-07-27T11:01:36.158Z,1.00
2022-07-27T11:04:03.966Z,1.00
2022-07-27T11:06:36.278Z,0.00
2022-07-27T11:11:58.267Z,0.00
2022-07-27T11:14:30.521Z,1.00
2022-07-27T11:17:07.944Z,0.00
2022-07-27T11:19:47.081Z,0.00
2022-07-27T11:22:28.625Z,0.60
2022-07-27T11:24:56.699Z,0.60
2022-07-27T11:27:25.452Z,1.00
2022-07-27T11:29:53.191Z,0.00
2022-07-27T11:32:20.928Z,0.60
2022-07-27T11:34:48.738Z,0.80
2022-07-27T11:37:19.496Z,0.00
2022-07-27T11:40:03.301Z,0.00
2022-07-27T11:42:34.899Z,1.00
2022-07-27T11:45:03.810Z,1.00
2022-07-27T11:47:31.539Z,0.20
2022-07-27T11:49:59.217Z,0.00
2022-07-27T11:52:27.031Z,1.00
2022-07-27T11:54:57.647Z,1.00
2022-07-27T11:57:25.432Z,1.00
2022-07-27T11:59:53.125Z,0.60
2022-07-27T12:02:22.546Z,0.00
2022-07-27T12:04:50.776Z,1.00
2022-07-27T12:07:20.147Z,1.00
2022-07-27T12:09:48.081Z,1.00
2022-07-27T12:12:15.866Z,1.00
2022-07-27T12:14:43.600Z,1.00
2022-07-27T12:17:12.165Z,0.40
2022-07-27T12:19:39.982Z,0.00
2022-07-27T12:22:07.597Z,0.00
2022-07-27T12:24:35.374Z,1.00
2022-07-27T12:27:06.698Z,0.00
2022-07-27T12:29:34.712Z,1.00
2022-07-27T12:32:02.392Z,0.80
2022-07-27T12:34:30.023Z,2.00
2022-07-27T12:36:58.224Z,1.00
2022-07-27T12:39:25.878Z,0.00
2022-07-27T12:41:53.573Z,1.00
2022-07-27T12:44:21.328Z,1.20
2022-07-27T12:46:49.492Z,1.00
2022-07-27T12:49:17.717Z,0.00
2022-07-27T12:51:47.014Z,0.40
2022-07-27T12:54:14.694Z,0.40
2022-07-27T12:56:42.702Z,0.00
2022-07-27T12:59:10.525Z,0.00
2022-07-27T13:01:38.697Z,0.40
2022-07-27T13:04:06.539Z,0.40
2022-07-27T13:06:34.623Z,0.00
2022-07-27T13:09:02.377Z,0.00
2022-07-27T13:11:30.074Z,0.20
2022-07-27T13:13:57.755Z,0.20
2022-07-27T13:16:26.028Z,0.80
2022-07-27T13:18:53.767Z,0.00
2022-07-27T13:21:21.652Z,0.00
2022-07-27T13:23:49.315Z,0.60
2022-07-27T13:26:20.872Z,0.00
2022-07-27T13:28:49.682Z,1.60
2022-07-27T13:31:19.165Z,0.20
2022-07-27T13:33:46.918Z,0.60
2022-07-27T13:36:14.914Z,0.20
2022-07-27T13:38:42.638Z,1.00
2022-07-27T13:41:10.643Z,0.00
2022-07-27T13:43:38.323Z,1.00
2022-07-27T13:46:08.567Z,0.00
2022-07-27T13:48:36.327Z,0.20
2022-07-27T13:51:04.341Z,0.00
2022-07-27T13:53:31.994Z,0.40
2022-07-27T13:56:01.581Z,0.00
2022-07-27T13:58:30.393Z,0.00
2022-07-27T14:00:58.241Z,1.00
2022-07-27T14:03:26.080Z,0.60
2022-07-27T14:05:55.688Z,1.00
2022-07-27T14:08:25.595Z,0.00
2022-07-27T14:10:53.330Z,1.00
2022-07-27T14:13:21.708Z,0.20
2022-07-27T14:15:52.497Z,0.00
2022-07-27T14:18:23.580Z,0.60
2022-07-27T14:20:51.436Z,0.40
2022-07-27T14:23:19.067Z,1.00
2022-07-27T14:25:47.640Z,0.00
2022-07-27T14:28:16.323Z,0.00
2022-07-27T14:30:44.029Z,0.00
2022-07-27T14:33:11.827Z,0.60
2022-07-27T14:35:40.923Z,0.80
2022-07-27T14:38:08.853Z,0.00
2022-07-27T14:40:36.558Z,0.60
2022-07-27T14:43:04.224Z,0.20
2022-07-27T14:45:44.124Z,1.00
2022-07-27T14:48:18.713Z,0.00
2022-07-27T14:50:50.601Z,0.00
2022-07-27T14:53:18.778Z,0.00
2022-07-27T14:55:46.573Z,0.00
2022-07-27T14:58:14.366Z,0.20
2022-07-27T15:00:42.099Z,1.00
2022-07-27T15:03:09.885Z,0.60
2022-07-27T15:05:49.741Z,0.00
2022-07-27T15:08:20.198Z,0.80
2022-07-27T15:10:48.040Z,1.00
2022-07-27T15:13:15.919Z,1.00
2022-07-27T15:15:44.118Z,0.60
2022-07-27T15:18:11.876Z,1.00
2022-07-27T15:20:39.572Z,0.60
2022-07-27T15:23:07.321Z,1.80
2022-07-27T15:25:35.412Z,2.00
2022-07-27T15:28:03.043Z,2.20
2022-07-27T15:30:34.967Z,2.80
2022-07-27T15:33:05.748Z,2.20
2022-07-27T15:35:33.435Z,3.40
2022-07-27T15:38:01.469Z,2.00
2022-07-27T15:40:38.322Z,3.00
2022-07-27T15:43:06.202Z,4.00
2022-07-27T15:45:38.571Z,3.00
2022-07-27T15:48:06.528Z,3.00
2022-07-27T15:50:34.165Z,1.20
2022-07-27T15:53:01.859Z,1.00
2022-07-27T15:55:29.512Z,1.00
2022-07-27T15:57:57.147Z,1.00
2022-07-27T16:00:25.653Z,1.00
2022-07-27T16:02:53.818Z,1.00
2022-07-27T16:05:22.250Z,1.00
2022-07-27T16:07:49.978Z,1.00
2022-07-27T16:10:17.681Z,1.00
2022-07-27T16:12:45.473Z,1.00
2022-07-27T16:15:13.672Z,0.60
2022-07-27T16:17:41.427Z,1.00
2022-07-27T16:20:09.098Z,0.00
2022-07-27T16:22:39.586Z,0.60
2022-07-27T16:25:08.605Z,0.00
2022-07-27T16:27:36.231Z,0.20
2022-07-27T16:30:03.960Z,1.00
2022-07-27T16:32:32.489Z,0.40
2022-07-27T16:35:00.167Z,0.00
2022-07-27T16:37:29.438Z,0.00
2022-07-27T16:39:57.224Z,0.00
2022-07-27T16:42:24.912Z,0.00
2022-07-27T16:44:52.710Z,1.00
2022-07-27T16:47:20.549Z,0.00
2022-07-27T16:49:48.212Z,0.60
2022-07-27T16:52:16.009Z,1.00
2022-07-27T16:54:44.185Z,1.00
2022-07-27T16:57:11.840Z,0.00
2022-07-27T16:59:40.297Z,0.00
2022-07-27T17:02:08.021Z,0.00
2022-07-27T17:04:36.295Z,0.00
2022-07-27T17:07:03.993Z,0.80
2022-07-27T17:09:33.129Z,1.00
2022-07-27T17:12:00.781Z,0.00
2022-07-27T17:14:28.919Z,0.00
2022-07-27T17:16:56.775Z,1.00
2022-07-27T17:19:24.544Z,0.00
2022-07-27T17:21:52.151Z,1.00
2022-07-27T17:24:20.244Z,1.00
2022-07-27T17:26:47.886Z,0.00
2022-07-27T17:29:16.289Z,0.60
2022-07-27T17:31:44.328Z,0.00
2022-07-27T17:34:12.143Z,0.00
2022-07-27T17:36:40.138Z,0.40
2022-07-27T17:39:09.027Z,1.00
2022-07-27T17:41:38.770Z,0.20
2022-07-27T17:44:06.408Z,1.00
2022-07-27T17:46:38.785Z,0.80
2022-07-27T17:49:07.083Z,1.00
2022-07-27T17:51:34.903Z,1.00
2022-07-27T17:54:03.963Z,0.00
2022-07-27T17:56:32.707Z,0.40
2022-07-27T17:59:14.318Z,0.80
2022-07-27T18:01:48.749Z,0.00
2022-07-27T18:04:16.602Z,0.00
2022-07-27T18:06:45.295Z,1.00
2022-07-27T18:09:14.539Z,1.00
2022-07-27T18:11:42.706Z,0.00
2022-07-27T18:14:10.306Z,0.00
2022-07-27T18:16:40.873Z,0.00
2022-07-27T18:19:11.945Z,1.00
2022-07-27T18:21:39.866Z,0.60
2022-07-27T18:24:07.573Z,0.00
2022-07-27T18:26:40.788Z,0.00
2022-07-27T18:29:08.549Z,0.00
2022-07-27T18:31:36.519Z,0.00
2022-07-27T18:34:09.301Z,1.00
2022-07-27T18:36:42.638Z,0.00
2022-07-27T18:39:11.326Z,0.00
2022-07-27T18:41:40.842Z,1.00
2022-07-27T18:44:08.635Z,0.00
2022-07-27T18:46:36.742Z,0.00
2022-07-27T18:49:05.158Z,0.00
2022-07-27T18:51:32.979Z,0.00
2022-07-27T18:54:00.820Z,0.20
2022-07-27T18:56:29.028Z,0.00
2022-07-27T18:58:56.798Z,0.00
2022-07-27T19:01:24.481Z,0.60
2022-07-27T19:03:52.333Z,1.00
2022-07-27T19:06:20.107Z,0.00
2022-07-27T19:08:50.531Z,0.40
2022-07-27T19:11:18.316Z,0.00
2022-07-27T19:13:46.019Z,0.00
2022-07-27T19:16:13.683Z,0.00
2022-07-27T19:18:41.492Z,1.00
2022-07-27T19:21:09.245Z,0.40
2022-07-27T19:23:36.989Z,0.00
2022-07-27T19:26:05.218Z,0.00
2022-07-27T19:28:33.011Z,0.00
2022-07-27T19:31:00.908Z,0.40
2022-07-27T19:33:28.690Z,0.40
2022-07-27T19:35:58.275Z,0.40
2022-07-27T19:38:27.931Z,0.00
2022-07-27T19:40:55.787Z,0.00
2022-07-27T19:43:23.469Z,0.00
2022-07-27T19:45:52.319Z,0.80
2022-07-27T19:48:22.026Z,0.00
2022-07-27T19:50:49.955Z,0.00
2022-07-27T19:53:17.633Z,1.00
2022-07-27T19:55:45.331Z,1.00
2022-07-27T19:58:13.963Z,0.40
2022-07-27T20:00:41.645Z,1.00
2022-07-27T20:03:09.543Z,1.00
2022-07-27T20:05:37.294Z,0.00
2022-07-27T20:08:06.335Z,0.20
2022-07-27T20:10:34.099Z,0.00
2022-07-27T20:13:02.873Z,0.40
2022-07-27T20:15:31.745Z,0.40
2022-07-27T20:17:59.947Z,0.00
2022-07-27T20:20:27.683Z,0.00
2022-07-27T20:22:55.665Z,1.00
2022-07-27T20:25:23.344Z,0.60
2022-07-27T20:27:51.300Z,1.00
2022-07-27T20:30:20.211Z,0.00
2022-07-27T20:32:47.999Z,0.60
2022-07-27T20:35:15.776Z,0.80
2022-07-27T20:37:43.972Z,1.00
2022-07-27T20:40:12.803Z,0.20
2022-07-27T20:42:40.510Z,1.00
2022-07-27T20:45:10.359Z,0.00
2022-07-27T20:47:38.576Z,0.00
2022-07-27T20:50:06.623Z,1.00
2022-07-27T20:52:34.303Z,1.00
2022-07-27T20:55:02.247Z,1.00
2022-07-27T20:57:31.254Z,1.00
2022-07-27T20:59:59.014Z,0.60
2022-07-27T21:02:27.015Z,0.00
2022-07-27T21:04:55.153Z,1.00
2022-07-27T21:07:23.152Z,0.60
2022-07-27T21:09:50.871Z,1.00
2022-07-27T21:12:18.669Z,2.20
2022-07-27T21:14:46.362Z,1.00
2022-07-27T21:17:14.473Z,1.00
2022-07-27T21:19:42.196Z,1.00
2022-07-27T21:22:09.967Z,1.00
2022-07-27T21:24:37.671Z,1.00
2022-07-27T21:27:06.592Z,1.00
2022-07-27T21:29:36.437Z,0.20
2022-07-27T21:32:04.120Z,1.80
2022-07-27T21:34:31.958Z,1.00
2022-07-27T21:37:01.097Z,1.00
2022-07-27T21:39:29.193Z,1.00
2022-07-27T21:42:01.704Z,0.00
2022-07-27T21:44:30.091Z,0.20
2022-07-27T21:46:58.261Z,1.00
2022-07-27T21:49:34.086Z,0.00
2022-07-27T21:52:02.506Z,0.20
2022-07-27T21:54:30.579Z,0.00
2022-07-27T21:56:58.339Z,0.40
2022-07-27T21:59:26.004Z,0.00
2022-07-27T22:01:53.646Z,1.00
2022-07-27T22:04:21.567Z,1.00
2022-07-27T22:06:49.724Z,1.00
2022-07-27T22:09:17.441Z,0.00
2022-07-27T22:11:45.067Z,0.40
2022-07-27T22:14:12.923Z,0.20
2022-07-27T22:16:41.472Z,0.80
2022-07-27T22:19:09.277Z,0.00
2022-07-27T22:21:36.994Z,0.00
2022-07-27T22:24:04.713Z,1.80
2022-07-27T22:26:32.633Z,0.20
2022-07-27T22:29:00.397Z,1.00
2022-07-27T22:31:28.077Z,1.00
2022-07-27T22:33:55.806Z,0.20
2022-07-27T22:36:23.429Z,0.00
2022-07-27T22:38:51.156Z,1.00
2022-07-27T22:41:18.772Z,0.50
2022-07-27T22:43:46.762Z,1.00
2022-07-27T22:46:14.863Z,0.00
2022-07-27T22:48:42.756Z,1.00
2022-07-27T22:51:10.446Z,2.00
2022-07-27T22:53:38.731Z,1.00
2022-07-27T22:56:07.005Z,1.00
2022-07-27T22:58:34.637Z,1.00
2022-07-27T23:01:03.109Z,0.33
2022-07-27T23:03:30.892Z,1.00
2022-07-27T23:05:58.626Z,1.00
2022-07-27T23:08:28.800Z,1.00
2022-07-27T23:10:56.507Z,0.67
2022-07-27T23:13:24.114Z,1.00
2022-07-27T23:15:51.926Z,1.50
2022-07-27T23:18:20.871Z,0.00
2022-07-27T23:20:48.552Z,0.50
2022-07-27T23:23:17.020Z,1.00
2022-07-27T23:25:45.086Z,0.75
2022-07-27T23:28:13.193Z,1.00
2022-07-27T23:30:40.925Z,0.75
2022-07-27T23:33:08.660Z,1.00
2022-07-27T23:35:36.318Z,1.00
2022-07-27T23:38:04.513Z,0.75
2022-07-27T23:40:32.314Z,0.00
2022-07-27T23:42:59.931Z,1.00
2022-07-27T23:45:27.975Z,2.00
2022-07-27T23:47:56.000Z,0.75
2022-07-27T23:50:23.605Z,0.75
2022-07-27T23:52:51.274Z,1.00
2022-07-27T23:55:18.926Z,1.00
2022-07-27T23:57:47.218Z,0.00
